Time;durP1;ratioP1;P1;durP2;ratioP2;P2;SDS_P1;SDS_P2;PMS_P1;PMS_P2;Temp;Humidity;BMP_temperature;BMP_pressure;BME280_temperature;BME280_humidity;BME280_pressure;Samples;Min_cycle;Max_cycle;Signal;HPM_P1;HPM_P2
2021/09/28 00:01:32;;;;;;;7.50;5.07;;;;;;;;;;4929848;29;20078;-96
2021/09/28 00:03:59;;;;;;;7.90;5.22;;;;;;;;;;4926284;29;20027;-96
2021/09/28 00:06:25;;;;;;;5.72;4.32;;;;;;;;;;4926566;29;20031;-95
2021/09/28 00:08:51;;;;;;;6.55;4.35;;;;;;;;;;4930391;29;20028;-92
2021/09/28 00:11:17;;;;;;;7.60;4.63;;;;;;;;;;4937163;29;20054;-95
2021/09/28 00:13:44;;;;;;;6.88;5.03;;;;;;;;;;4934016;29;20031;-90
2021/09/28 00:16:13;;;;;;;11.48;5.00;;;;;;;;;;4929400;29;20035;-96
2021/09/28 00:18:39;;;;;;;6.15;4.15;;;;;;;;;;4924692;29;20031;-95
2021/09/28 00:21:06;;;;;;;6.68;4.20;;;;;;;;;;4922345;29;20028;-91
2021/09/28 00:23:32;;;;;;;6.55;4.55;;;;;;;;;;4928700;29;20031;-95
2021/09/28 00:25:58;;;;;;;9.68;4.55;;;;;;;;;;4922656;29;20067;-96
2021/09/28 00:28:28;;;;;;;8.57;4.78;;;;;;;;;;4921405;29;20042;-95
2021/09/28 00:30:54;;;;;;;9.35;5.90;;;;;;;;;;4920584;29;20027;-91
2021/09/28 00:33:21;;;;;;;7.70;5.55;;;;;;;;;;4920542;29;20028;-95
2021/09/28 00:35:47;;;;;;;11.15;6.55;;;;;;;;;;4920513;29;20035;-93
2021/09/28 00:38:13;;;;;;;9.60;6.07;;;;;;;;;;4916814;29;20058;-94
2021/09/28 00:40:40;;;;;;;11.10;7.45;;;;;;;;;;4917464;29;20035;-92
2021/09/28 00:43:06;;;;;;;13.73;7.90;;;;;;;;;;4917752;29;20039;-92
2021/09/28 00:45:32;;;;;;;11.45;7.10;;;;;;;;;;4917065;29;20042;-92
2021/09/28 00:47:58;;;;;;;10.00;6.80;;;;;;;;;;4922938;29;20123;-96
2021/09/28 00:50:24;;;;;;;9.57;6.85;;;;;;;;;;4928564;29;20028;-94
2021/09/28 00:52:51;;;;;;;9.38;6.72;;;;;;;;;;4926505;29;20032;-96
2021/09/28 00:55:18;;;;;;;10.77;6.53;;;;;;;;;;4925662;29;20064;-95
2021/09/28 00:57:45;;;;;;;9.50;6.57;;;;;;;;;;4936129;29;20473;-90
2021/09/28 01:00:12;;;;;;;11.00;7.13;;;;;;;;;;4929036;29;20035;-90
2021/09/28 01:02:38;;;;;;;15.63;7.68;;;;;;;;;;4924270;29;20067;-96
2021/09/28 01:05:06;;;;;;;10.65;6.80;;;;;;;;;;4920687;29;20028;-95
2021/09/28 01:07:32;;;;;;;10.05;6.75;;;;;;;;;;4921034;29;20059;-95
2021/09/28 01:09:59;;;;;;;9.73;6.32;;;;;;;;;;4922224;29;20053;-95
2021/09/28 01:12:25;;;;;;;11.93;7.13;;;;;;;;;;4920380;29;20051;-95
2021/09/28 01:14:52;;;;;;;11.40;7.75;;;;;;;;;;4920409;29;20043;-95
2021/09/28 01:17:19;;;;;;;11.27;7.53;;;;;;;;;;4920593;29;20028;-94
2021/09/28 01:19:46;;;;;;;11.43;7.72;;;;;;;;;;4923819;29;20039;-93
2021/09/28 01:22:13;;;;;;;12.73;7.63;;;;;;;;;;4922800;29;20051;-93
2021/09/28 01:24:39;;;;;;;12.30;8.40;;;;;;;;;;4921080;29;20469;-93
2021/09/28 01:27:06;;;;;;;13.85;7.80;;;;;;;;;;4920175;29;20020;-94
2021/09/28 01:29:33;;;;;;;12.27;7.93;;;;;;;;;;4920270;29;20032;-94
2021/09/28 01:31:59;;;;;;;12.57;7.68;;;;;;;;;;4920243;29;20060;-96
2021/09/28 01:34:25;;;;;;;12.82;8.20;;;;;;;;;;4920348;29;20026;-94
2021/09/28 01:36:51;;;;;;;13.57;7.82;;;;;;;;;;4920111;29;20047;-95
2021/09/28 01:39:19;;;;;;;12.20;7.20;;;;;;;;;;4920098;29;20035;-94
2021/09/28 01:41:46;;;;;;;11.32;7.40;;;;;;;;;;4920070;29;20032;-96
2021/09/28 01:44:14;;;;;;;10.80;7.13;;;;;;;;;;4919852;29;20024;-92
2021/09/28 01:46:41;;;;;;;11.05;7.50;;;;;;;;;;4919807;29;20036;-94
2021/09/28 01:49:08;;;;;;;14.70;7.82;;;;;;;;;;4920217;29;20028;-94
2021/09/28 01:51:35;;;;;;;9.75;6.82;;;;;;;;;;4919805;29;20036;-95
2021/09/28 01:54:02;;;;;;;17.02;8.18;;;;;;;;;;4919760;29;20461;-94
2021/09/28 01:56:29;;;;;;;15.30;7.55;;;;;;;;;;4919758;29;20123;-95
2021/09/28 01:58:56;;;;;;;11.82;8.23;;;;;;;;;;4919987;29;20036;-95
2021/09/28 02:01:22;;;;;;;11.65;8.02;;;;;;;;;;4919651;29;20099;-90
2021/09/28 02:03:48;;;;;;;9.95;7.72;;;;;;;;;;4920759;29;20040;-94
2021/09/28 02:06:18;;;;;;;11.90;7.57;;;;;;;;;;4919464;29;20028;-94
2021/09/28 02:08:44;;;;;;;11.50;7.47;;;;;;;;;;4919343;29;20036;-94
2021/09/28 02:11:10;;;;;;;11.25;7.55;;;;;;;;;;4920041;29;20393;-94
2021/09/28 02:13:37;;;;;;;11.48;7.43;;;;;;;;;;4919608;29;20092;-93
2021/09/28 02:16:03;;;;;;;10.75;7.43;;;;;;;;;;4919420;29;20032;-94
2021/09/28 02:18:30;;;;;;;12.73;8.60;;;;;;;;;;4919655;29;20491;-94
2021/09/28 02:20:56;;;;;;;12.35;7.55;;;;;;;;;;4919683;29;20393;-95
2021/09/28 02:23:22;;;;;;;10.85;8.18;;;;;;;;;;4919673;29;20063;-95
2021/09/28 02:25:49;;;;;;;12.43;9.02;;;;;;;;;;4903627;29;20025;-95
2021/09/28 02:28:15;;;;;;;11.05;7.63;;;;;;;;;;4919088;29;20500;-94
2021/09/28 02:30:41;;;;;;;11.43;7.80;;;;;;;;;;4919149;29;20049;-94
2021/09/28 02:33:08;;;;;;;12.77;8.55;;;;;;;;;;4919683;29;20549;-92
2021/09/28 02:35:34;;;;;;;16.15;8.63;;;;;;;;;;4919051;29;20032;-94
2021/09/28 02:38:00;;;;;;;14.38;8.63;;;;;;;;;;4918634;29;20445;-94
2021/09/28 02:40:27;;;;;;;13.45;8.73;;;;;;;;;;4919146;29;20028;-93
2021/09/28 02:42:54;;;;;;;14.45;9.27;;;;;;;;;;4918953;29;20500;-94
2021/09/28 02:45:21;;;;;;;13.77;8.52;;;;;;;;;;4918988;29;20047;-93
2021/09/28 02:47:47;;;;;;;12.43;8.35;;;;;;;;;;4918709;29;20028;-95
2021/09/28 02:50:13;;;;;;;13.52;8.30;;;;;;;;;;4918789;29;20116;-93
2021/09/28 02:52:40;;;;;;;16.02;9.65;;;;;;;;;;4918750;29;20040;-93
2021/09/28 02:55:07;;;;;;;11.23;8.25;;;;;;;;;;4918581;29;20088;-93
2021/09/28 02:57:33;;;;;;;14.90;8.77;;;;;;;;;;4918485;29;20473;-93
2021/09/28 03:00:01;;;;;;;17.45;9.43;;;;;;;;;;4918745;29;20040;-93
2021/09/28 03:02:28;;;;;;;15.10;8.55;;;;;;;;;;4918401;29;20131;-91
2021/09/28 03:04:54;;;;;;;14.57;8.98;;;;;;;;;;4918566;29;20040;-93
2021/09/28 03:07:20;;;;;;;15.75;9.40;;;;;;;;;;4919276;29;20036;-93
2021/09/28 03:09:46;;;;;;;16.67;9.10;;;;;;;;;;4917850;29;20043;-94
2021/09/28 03:12:12;;;;;;;15.23;9.43;;;;;;;;;;4918496;29;20509;-95
2021/09/28 03:14:39;;;;;;;16.10;9.82;;;;;;;;;;4918561;29;20029;-92
2021/09/28 03:17:06;;;;;;;17.08;9.55;;;;;;;;;;4919674;29;20039;-92
2021/09/28 03:19:33;;;;;;;16.65;10.35;;;;;;;;;;4918343;29;20056;-94
2021/09/28 03:21:59;;;;;;;14.40;8.95;;;;;;;;;;4902492;29;20036;-95
2021/09/28 03:24:26;;;;;;;16.88;9.13;;;;;;;;;;4919250;29;20031;-94
2021/09/28 03:26:52;;;;;;;15.50;9.52;;;;;;;;;;4918079;29;20024;-93
2021/09/28 03:29:18;;;;;;;13.38;9.07;;;;;;;;;;4918118;29;20032;-94
2021/09/28 03:31:45;;;;;;;13.52;8.48;;;;;;;;;;4917998;29;20040;-93
2021/09/28 03:34:11;;;;;;;13.02;8.38;;;;;;;;;;4919134;29;20035;-95
2021/09/28 03:36:38;;;;;;;16.25;8.75;;;;;;;;;;4918285;29;20127;-93
2021/09/28 03:39:04;;;;;;;14.68;9.30;;;;;;;;;;4918057;29;20029;-94
2021/09/28 03:41:30;;;;;;;15.73;9.02;;;;;;;;;;4918023;29;20032;-95
2021/09/28 03:43:57;;;;;;;14.63;8.75;;;;;;;;;;4918033;29;20024;-94
2021/09/28 03:46:23;;;;;;;13.75;8.02;;;;;;;;;;4917742;29;20035;-94
2021/09/28 03:48:49;;;;;;;13.73;7.97;;;;;;;;;;4917936;29;20035;-93
2021/09/28 03:51:16;;;;;;;13.40;8.18;;;;;;;;;;4920076;29;20040;-92
2021/09/28 03:53:42;;;;;;;13.27;8.93;;;;;;;;;;4918342;29;20038;-93
2021/09/28 03:56:09;;;;;;;17.17;8.45;;;;;;;;;;4917843;29;20024;-94
2021/09/28 03:58:35;;;;;;;14.13;9.10;;;;;;;;;;4917689;29;20092;-94
2021/09/28 04:01:01;;;;;;;13.20;9.25;;;;;;;;;;4917431;29;20028;-92
2021/09/28 04:03:28;;;;;;;17.00;8.48;;;;;;;;;;4917471;29;20040;-92
2021/09/28 04:05:54;;;;;;;15.50;9.02;;;;;;;;;;4921175;29;20028;-92
2021/09/28 04:08:20;;;;;;;14.48;9.18;;;;;;;;;;4918105;29;20099;-94
2021/09/28 04:10:47;;;;;;;16.55;9.75;;;;;;;;;;4917620;29;20024;-95
2021/09/28 04:13:13;;;;;;;13.38;9.18;;;;;;;;;;4917425;29;20032;-95
2021/09/28 04:15:40;;;;;;;14.10;8.82;;;;;;;;;;4917351;29;20043;-95
2021/09/28 04:18:13;;;;;;;14.07;9.40;;;;;;;;;;4917492;29;20036;-94
2021/09/28 04:20:39;;;;;;;;;;;;;;;;;;4917851;29;20065;-95
2021/09/28 04:23:06;;;;;;;14.20;9.25;;;;;;;;;;4917524;29;19907;-94
2021/09/28 04:25:32;;;;;;;15.60;9.88;;;;;;;;;;4917435;29;20047;-92
2021/09/28 04:28:00;;;;;;;14.68;9.18;;;;;;;;;;4917440;29;20060;-95
2021/09/28 04:30:26;;;;;;;12.45;8.45;;;;;;;;;;4917457;29;20067;-89
2021/09/28 04:32:52;;;;;;;14.25;8.50;;;;;;;;;;4917300;29;20040;-91
2021/09/28 04:35:19;;;;;;;18.10;9.73;;;;;;;;;;4917670;29;20020;-95
2021/09/28 04:37:45;;;;;;;15.85;9.43;;;;;;;;;;4916956;29;20569;-91
2021/09/28 04:40:12;;;;;;;16.10;9.55;;;;;;;;;;4918831;29;20032;-96
2021/09/28 04:42:38;;;;;;;14.10;9.45;;;;;;;;;;4918119;29;20056;-95
2021/09/28 04:45:05;;;;;;;13.70;9.18;;;;;;;;;;4918901;29;20119;-96
2021/09/28 04:47:31;;;;;;;13.10;8.68;;;;;;;;;;4917090;29;20449;-92
2021/09/28 04:49:58;;;;;;;13.80;8.55;;;;;;;;;;4919884;29;20040;-92
2021/09/28 04:52:24;;;;;;;13.25;8.20;;;;;;;;;;4916734;29;20127;-91
2021/09/28 04:54:50;;;;;;;13.80;9.10;;;;;;;;;;4917283;29;20074;-95
2021/09/28 04:57:17;;;;;;;12.10;8.25;;;;;;;;;;4916833;29;20036;-95
2021/09/28 04:59:46;;;;;;;16.27;9.73;;;;;;;;;;4917543;29;20481;-96
2021/09/28 05:02:12;;;;;;;16.83;9.38;;;;;;;;;;4917578;29;20393;-93
2021/09/28 05:04:38;;;;;;;14.95;9.63;;;;;;;;;;4913415;29;20021;-87
2021/09/28 05:07:06;;;;;;;15.73;10.68;;;;;;;;;;4917444;29;20032;-91
2021/09/28 05:09:32;;;;;;;15.20;9.43;;;;;;;;;;4916079;29;20059;-91
2021/09/28 05:11:59;;;;;;;19.08;10.43;;;;;;;;;;4916149;29;20127;-89
2021/09/28 05:14:26;;;;;;;18.77;11.88;;;;;;;;;;4916551;29;20024;-91
2021/09/28 05:16:53;;;;;;;16.30;10.45;;;;;;;;;;4916460;29;20120;-92
2021/09/28 05:19:19;;;;;;;16.02;10.35;;;;;;;;;;4916393;29;20119;-91
2021/09/28 05:21:45;;;;;;;17.42;11.35;;;;;;;;;;4916046;29;20024;-89
2021/09/28 05:24:11;;;;;;;22.27;11.23;;;;;;;;;;4915891;29;20035;-87
2021/09/28 05:26:37;;;;;;;21.48;13.60;;;;;;;;;;4916185;29;20032;-89
2021/09/28 05:29:03;;;;;;;19.70;13.13;;;;;;;;;;4915988;29;20039;-87
2021/09/28 05:31:30;;;;;;;21.92;13.63;;;;;;;;;;4915675;29;20079;-87
2021/09/28 05:33:56;;;;;;;22.35;13.68;;;;;;;;;;4919110;29;20425;-87
2021/09/28 05:36:22;;;;;;;22.50;14.30;;;;;;;;;;4922069;29;20084;-88
2021/09/28 05:38:49;;;;;;;23.70;13.40;;;;;;;;;;4939401;29;20024;-87
2021/09/28 05:41:15;;;;;;;26.20;13.82;;;;;;;;;;4922024;29;20078;-87
2021/09/28 05:43:41;;;;;;;22.25;14.20;;;;;;;;;;4939115;29;20032;-87
2021/09/28 05:46:07;;;;;;;21.63;13.25;;;;;;;;;;4939121;29;20027;-86
2021/09/28 05:48:34;;;;;;;23.98;13.90;;;;;;;;;;4939189;29;20032;-87
2021/09/28 05:51:00;;;;;;;23.50;14.48;;;;;;;;;;4921893;29;20040;-87
2021/09/28 05:53:33;;;;;;;21.88;12.57;;;;;;;;;;4922344;29;20028;-87
2021/09/28 05:55:59;;;;;;;22.52;12.63;;;;;;;;;;4922020;29;20028;-87
2021/09/28 05:58:26;;;;;;;18.27;11.80;;;;;;;;;;4938968;29;20055;-88
2021/09/28 06:00:52;;;;;;;18.75;12.30;;;;;;;;;;4939493;29;20024;-88
2021/09/28 06:03:18;;;;;;;21.95;12.45;;;;;;;;;;4921912;29;20043;-89
2021/09/28 06:05:44;;;;;;;17.85;11.05;;;;;;;;;;4922076;29;20027;-89
2021/09/28 06:08:10;;;;;;;18.48;11.55;;;;;;;;;;4922135;29;20035;-87
2021/09/28 06:10:36;;;;;;;19.42;11.45;;;;;;;;;;4939096;29;20031;-91
2021/09/28 06:13:02;;;;;;;16.70;10.32;;;;;;;;;;4921617;29;20039;-87
2021/09/28 06:15:28;;;;;;;19.30;10.65;;;;;;;;;;4938740;29;20120;-87
2021/09/28 06:17:55;;;;;;;18.55;10.75;;;;;;;;;;4921399;29;20040;-89
2021/09/28 06:20:21;;;;;;;19.85;11.73;;;;;;;;;;4921581;29;20028;-87
2021/09/28 06:22:47;;;;;;;18.40;11.40;;;;;;;;;;4921513;29;20476;-87
2021/09/28 06:25:13;;;;;;;17.48;11.85;;;;;;;;;;4938692;29;20051;-87
2021/09/28 06:27:40;;;;;;;22.38;13.23;;;;;;;;;;4921295;29;20039;-87
2021/09/28 06:30:06;;;;;;;17.65;10.73;;;;;;;;;;4921441;29;20055;-88
2021/09/28 06:32:32;;;;;;;18.20;10.82;;;;;;;;;;4921146;29;20504;-88
2021/09/28 06:34:58;;;;;;;23.77;13.20;;;;;;;;;;4921238;29;20031;-87
2021/09/28 06:37:24;;;;;;;22.40;13.80;;;;;;;;;;4917842;29;20052;-87
2021/09/28 06:39:51;;;;;;;21.45;13.50;;;;;;;;;;4918967;29;20024;-87
2021/09/28 06:42:17;;;;;;;22.20;13.50;;;;;;;;;;4917883;29;20043;-87
2021/09/28 06:44:43;;;;;;;20.55;12.95;;;;;;;;;;4918086;29;20068;-87
2021/09/28 06:47:09;;;;;;;23.23;13.38;;;;;;;;;;4917754;29;20036;-87
2021/09/28 06:49:35;;;;;;;20.63;13.95;;;;;;;;;;4918244;29;20020;-87
2021/09/28 06:52:01;;;;;;;23.48;13.88;;;;;;;;;;4919447;29;20111;-89
2021/09/28 06:54:27;;;;;;;24.65;13.77;;;;;;;;;;4917675;29;20035;-87
2021/09/28 06:56:53;;;;;;;22.38;12.65;;;;;;;;;;4919638;29;20068;-87
2021/09/28 06:59:19;;;;;;;17.98;10.30;;;;;;;;;;4917746;29;20021;-87
2021/09/28 07:01:45;;;;;;;24.25;14.55;;;;;;;;;;4918873;29;20040;-87
2021/09/28 07:04:12;;;;;;;23.02;13.93;;;;;;;;;;4918756;29;20026;-87
2021/09/28 07:06:38;;;;;;;27.05;15.15;;;;;;;;;;4917395;29;20071;-88
2021/09/28 07:09:04;;;;;;;21.80;14.23;;;;;;;;;;4917604;29;20507;-88
2021/09/28 07:11:30;;;;;;;22.73;14.88;;;;;;;;;;4917582;29;20135;-89
2021/09/28 07:13:56;;;;;;;20.27;12.77;;;;;;;;;;4917524;29;20131;-86
2021/09/28 07:16:23;;;;;;;22.98;13.63;;;;;;;;;;4917414;29;20036;-89
2021/09/28 07:18:49;;;;;;;17.05;11.07;;;;;;;;;;4917255;29;20035;-88
2021/09/28 07:21:15;;;;;;;16.45;10.25;;;;;;;;;;4917596;29;20500;-90
2021/09/28 07:23:43;;;;;;;17.30;11.32;;;;;;;;;;4917708;29;20103;-89
2021/09/28 07:26:10;;;;;;;18.05;11.48;;;;;;;;;;4917898;29;20036;-88
2021/09/28 07:28:36;;;;;;;20.60;10.63;;;;;;;;;;4917489;29;20115;-89
2021/09/28 07:31:03;;;;;;;15.70;10.13;;;;;;;;;;4917279;29;20066;-88
2021/09/28 07:33:29;;;;;;;14.73;9.85;;;;;;;;;;4917354;29;20032;-88
2021/09/28 07:35:55;;;;;;;16.42;7.55;;;;;;;;;;4917001;29;20036;-89
2021/09/28 07:38:22;;;;;;;16.75;10.05;;;;;;;;;;4918294;29;20056;-89
2021/09/28 07:40:49;;;;;;;16.00;9.52;;;;;;;;;;4917538;29;20040;-89
2021/09/28 07:43:15;;;;;;;11.43;6.32;;;;;;;;;;4916961;29;20523;-88
2021/09/28 07:45:42;;;;;;;11.32;6.95;;;;;;;;;;4917271;29;20119;-88
2021/09/28 07:48:08;;;;;;;13.77;6.78;;;;;;;;;;4919150;29;20032;-86
2021/09/28 07:50:34;;;;;;;12.38;7.63;;;;;;;;;;4917289;29;20136;-89
2021/09/28 07:53:01;;;;;;;13.45;8.38;;;;;;;;;;4917302;29;20036;-90
2021/09/28 07:55:27;;;;;;;14.75;8.25;;;;;;;;;;4916823;29;20201;-89
2021/09/28 07:57:54;;;;;;;14.77;8.20;;;;;;;;;;4917332;29;20565;-89
2021/09/28 08:00:20;;;;;;;12.38;8.45;;;;;;;;;;4918295;29;20030;-89
2021/09/28 08:02:46;;;;;;;12.60;8.00;;;;;;;;;;4917138;29;20025;-88
2021/09/28 08:05:13;;;;;;;12.52;6.50;;;;;;;;;;4916858;29;20099;-89
2021/09/28 08:07:39;;;;;;;15.02;8.90;;;;;;;;;;4917019;29;20064;-88
2021/09/28 08:10:07;;;;;;;11.25;6.45;;;;;;;;;;4916622;29;20040;-88
2021/09/28 08:12:33;;;;;;;11.18;5.55;;;;;;;;;;4913871;29;20482;-88
2021/09/28 08:14:59;;;;;;;11.77;6.63;;;;;;;;;;4916842;29;20087;-88
2021/09/28 08:17:25;;;;;;;9.90;6.15;;;;;;;;;;4917070;29;20091;-88
2021/09/28 08:19:52;;;;;;;12.50;6.22;;;;;;;;;;4914728;29;20108;-89
2021/09/28 08:22:19;;;;;;;11.25;5.82;;;;;;;;;;4918074;29;20036;-89
2021/09/28 08:24:48;;;;;;;10.68;5.78;;;;;;;;;;4916993;29;20474;-89
2021/09/28 08:30:00;;;;;;;10.40;5.72;;;;;;;;;;4923592;29;20051;-89
2021/09/28 08:32:27;;;;;;;9.98;5.75;;;;;;;;;;4916861;29;20405;-88
2021/09/28 08:34:53;;;;;;;10.90;5.75;;;;;;;;;;4917119;29;20032;-89
2021/09/28 08:37:20;;;;;;;10.05;6.18;;;;;;;;;;4914713;29;20055;-89
2021/09/28 08:39:46;;;;;;;10.55;6.35;;;;;;;;;;4916769;29;20401;-91
2021/09/28 08:42:14;;;;;;;11.90;7.38;;;;;;;;;;4916939;29;20028;-91
2021/09/28 08:44:41;;;;;;;14.77;7.57;;;;;;;;;;4914084;29;20020;-87
2021/09/28 08:47:08;;;;;;;11.32;6.63;;;;;;;;;;4916433;29;20052;-90
2021/09/28 08:49:35;;;;;;;10.07;6.10;;;;;;;;;;4916671;29;20082;-91
2021/09/28 08:52:01;;;;;;;11.55;6.72;;;;;;;;;;4916630;29;20040;-91
2021/09/28 08:54:28;;;;;;;13.00;7.30;;;;;;;;;;4916620;29;20032;-88
2021/09/28 08:56:54;;;;;;;11.02;6.82;;;;;;;;;;4916542;29;20099;-88
2021/09/28 08:59:21;;;;;;;14.27;7.13;;;;;;;;;;4901092;29;20035;-90
2021/09/28 09:02:06;;;;;;;13.95;7.90;;;;;;;;;;4916022;29;20040;-88
2021/09/28 09:04:32;;;;;;;16.65;9.55;;;;;;;;;;4918046;29;20027;-91
2021/09/28 09:06:58;;;;;;;17.15;8.75;;;;;;;;;;4917137;29;20034;-90
2021/09/28 09:09:24;;;;;;;17.92;9.13;;;;;;;;;;4920238;29;20028;-89
2021/09/28 09:11:51;;;;;;;17.42;9.95;;;;;;;;;;4921086;29;20043;-90
2021/09/28 09:14:19;;;;;;;17.52;9.60;;;;;;;;;;4920756;29;20115;-88
2021/09/28 09:16:46;;;;;;;17.90;9.38;;;;;;;;;;4920589;29;20123;-89
2021/09/28 09:19:24;;;;;;;20.13;11.02;;;;;;;;;;4921661;29;20508;-89
2021/09/28 09:21:51;;;;;;;17.90;9.70;;;;;;;;;;4919874;29;20033;-90
2021/09/28 09:24:36;;;;;;;21.35;9.68;;;;;;;;;;4921036;29;20032;-91
2021/09/28 09:27:03;;;;;;;20.75;10.93;;;;;;;;;;4919671;29;20083;-93
2021/09/28 09:29:29;;;;;;;18.35;10.07;;;;;;;;;;4920241;29;20027;-90
2021/09/28 09:31:55;;;;;;;21.55;10.95;;;;;;;;;;4920272;29;20375;-90
2021/09/28 09:34:22;;;;;;;20.58;10.60;;;;;;;;;;4919947;29;20035;-90
2021/09/28 09:36:58;;;;;;;22.67;11.68;;;;;;;;;;4919369;29;20036;-89
2021/09/28 09:39:28;;;;;;;20.08;9.55;;;;;;;;;;4919413;29;20063;-91
2021/09/28 09:42:05;;;;;;;15.38;9.52;;;;;;;;;;4919005;29;20063;-92
2021/09/28 09:44:31;;;;;;;15.90;10.35;;;;;;;;;;4919460;29;20040;-90
2021/09/28 09:47:00;;;;;;;15.82;9.95;;;;;;;;;;4920245;29;20030;-91
2021/09/28 09:49:28;;;;;;;15.88;9.30;;;;;;;;;;4919539;29;20032;-90
2021/09/28 09:51:58;;;;;;;14.75;9.85;;;;;;;;;;4919121;29;20032;-89
2021/09/28 09:54:36;;;;;;;14.93;8.93;;;;;;;;;;4919221;29;20107;-89
2021/09/28 09:57:04;;;;;;;12.40;9.10;;;;;;;;;;4919072;29;20500;-90
2021/09/28 09:59:31;;;;;;;15.88;10.32;;;;;;;;;;4919030;29;20024;-92
2021/09/28 10:01:57;;;;;;;15.25;9.20;;;;;;;;;;4919461;29;20094;-91
2021/09/28 10:04:24;;;;;;;14.65;10.45;;;;;;;;;;4918759;29;20039;-90
2021/09/28 10:06:51;;;;;;;11.98;9.95;;;;;;;;;;4919822;29;20036;-92
2021/09/28 10:09:25;;;;;;;15.98;10.55;;;;;;;;;;4919089;29;20055;-91
2021/09/28 10:11:55;;;;;;;12.02;8.82;;;;;;;;;;4919100;29;20095;-93
2021/09/28 10:14:48;;;;;;;14.57;9.75;;;;;;;;;;4918923;29;20474;-87
2021/09/28 10:17:27;;;;;;;14.05;9.93;;;;;;;;;;4916621;29;20040;-92
2021/09/28 10:19:54;;;;;;;12.88;9.48;;;;;;;;;;4921119;29;20538;-91
2021/09/28 10:22:39;;;;;;;13.52;10.18;;;;;;;;;;4920107;29;20088;-87
2021/09/28 10:25:23;;;;;;;13.23;9.73;;;;;;;;;;4919627;29;20028;-90
2021/09/28 10:27:54;;;;;;;13.15;10.40;;;;;;;;;;4919121;29;20039;-88
2021/09/28 10:30:29;;;;;;;13.68;9.82;;;;;;;;;;4918819;29;20020;-91
2021/09/28 10:32:56;;;;;;;13.48;9.63;;;;;;;;;;4918775;29;20051;-88
2021/09/28 10:35:23;;;;;;;14.35;9.57;;;;;;;;;;4918482;29;20020;-88
2021/09/28 10:37:58;;;;;;;13.90;9.93;;;;;;;;;;4918199;29;20131;-89
2021/09/28 10:40:24;;;;;;;12.82;9.02;;;;;;;;;;4919149;29;20039;-91
2021/09/28 10:42:58;;;;;;;15.45;10.80;;;;;;;;;;4918679;29;20035;-93
2021/09/28 10:45:31;;;;;;;13.82;10.60;;;;;;;;;;4919601;29;20450;-90
2021/09/28 10:48:07;;;;;;;15.93;10.10;;;;;;;;;;4917946;29;20036;-86
2021/09/28 10:50:37;;;;;;;17.20;11.15;;;;;;;;;;4919559;29;20032;-87
2021/09/28 10:53:07;;;;;;;18.58;10.38;;;;;;;;;;4918599;29;20076;-86
2021/09/28 10:55:41;;;;;;;17.25;10.35;;;;;;;;;;4918645;29;20032;-89
2021/09/28 10:58:20;;;;;;;16.45;10.43;;;;;;;;;;4918148;29;20497;-88
2021/09/28 11:00:48;;;;;;;14.05;9.07;;;;;;;;;;4918237;29;20020;-93
2021/09/28 11:03:14;;;;;;;15.15;9.90;;;;;;;;;;4917842;29;20028;-90
2021/09/28 11:05:41;;;;;;;15.00;9.73;;;;;;;;;;4917724;29;20389;-87
2021/09/28 11:08:09;;;;;;;16.38;9.38;;;;;;;;;;4918291;29;20114;-89
2021/09/28 11:10:38;;;;;;;17.73;9.18;;;;;;;;;;4918153;29;20055;-88
2021/09/28 11:13:08;;;;;;;14.57;10.02;;;;;;;;;;4919547;29;20032;-92
2021/09/28 11:15:38;;;;;;;12.82;9.52;;;;;;;;;;4920281;29;20028;-93
2021/09/28 11:18:07;;;;;;;14.57;10.00;;;;;;;;;;4917989;29;20032;-92
2021/09/28 11:20:34;;;;;;;14.02;9.52;;;;;;;;;;4917265;29;20024;-81
2021/09/28 11:23:03;;;;;;;15.93;9.70;;;;;;;;;;4918009;29;20092;-92
2021/09/28 11:25:32;;;;;;;14.82;9.82;;;;;;;;;;4918931;29;20029;-92
2021/09/28 11:28:03;;;;;;;15.93;9.02;;;;;;;;;;4917809;29;20053;-93
2021/09/28 11:30:38;;;;;;;15.93;9.75;;;;;;;;;;4917605;29;20035;-92
2021/09/28 11:33:05;;;;;;;13.25;8.57;;;;;;;;;;4917787;29;20047;-90
2021/09/28 11:35:32;;;;;;;14.70;8.77;;;;;;;;;;4917222;29;20591;-83
2021/09/28 11:37:59;;;;;;;12.23;8.50;;;;;;;;;;4916371;29;20433;-82
2021/09/28 11:40:30;;;;;;;14.10;9.38;;;;;;;;;;4916640;29;20039;-81
2021/09/28 11:42:56;;;;;;;13.77;9.00;;;;;;;;;;4916739;29;20029;-81
2021/09/28 11:45:44;;;;;;;14.07;8.88;;;;;;;;;;4918545;29;20059;-87
2021/09/28 11:48:27;;;;;;;12.32;9.00;;;;;;;;;;4919945;29;20032;-86
2021/09/28 11:51:17;;;;;;;11.45;8.48;;;;;;;;;;4922291;29;20583;-89
2021/09/28 11:53:51;;;;;;;13.15;9.18;;;;;;;;;;4921281;29;20115;-86
2021/09/28 11:56:20;;;;;;;15.13;8.25;;;;;;;;;;4922240;29;20481;-89
2021/09/28 11:58:54;;;;;;;11.27;8.02;;;;;;;;;;4918383;29;20043;-88
2021/09/28 12:01:24;;;;;;;13.15;8.32;;;;;;;;;;4918116;29;20432;-86
2021/09/28 12:09:57;;;;;;;13.10;7.90;;;;;;;;;;4918944;29;20079;-86
2021/09/28 12:12:26;;;;;;;14.65;7.60;;;;;;;;;;4918230;29;20036;-86
2021/09/28 12:14:55;;;;;;;11.13;7.90;;;;;;;;;;4917814;29;20024;-88
2021/09/28 12:17:21;;;;;;;17.77;8.02;;;;;;;;;;4917563;29;20487;-85
2021/09/28 12:19:48;;;;;;;11.20;7.13;;;;;;;;;;4916156;29;20110;-87
2021/09/28 12:22:25;;;;;;;12.35;7.53;;;;;;;;;;4916590;29;20035;-85
2021/09/28 12:24:54;;;;;;;13.55;7.63;;;;;;;;;;4916673;29;20095;-88
2021/09/28 12:27:24;;;;;;;12.05;7.22;;;;;;;;;;4916819;29;20036;-86
2021/09/28 12:29:51;;;;;;;12.13;7.18;;;;;;;;;;4916628;29;20032;-86
2021/09/28 12:32:20;;;;;;;12.43;7.80;;;;;;;;;;4915867;29;20051;-86
2021/09/28 12:34:50;;;;;;;18.75;8.60;;;;;;;;;;4915905;29;20035;-86
2021/09/28 12:37:16;;;;;;;20.77;9.68;;;;;;;;;;4915781;29;20048;-86
2021/09/28 12:39:57;;;;;;;16.00;9.15;;;;;;;;;;4915806;29;20466;-85
2021/09/28 12:42:23;;;;;;;19.25;10.27;;;;;;;;;;4916249;29;20378;-85
2021/09/28 12:44:55;;;;;;;16.48;10.05;;;;;;;;;;4915848;29;20039;-85
2021/09/28 12:47:37;;;;;;;14.40;8.70;;;;;;;;;;4916450;29;20403;-85
2021/09/28 12:50:24;;;;;;;20.02;10.85;;;;;;;;;;4916023;29;20474;-85
2021/09/28 12:52:51;;;;;;;14.00;10.00;;;;;;;;;;4915613;29;20560;-85
2021/09/28 12:55:17;;;;;;;15.15;10.00;;;;;;;;;;4915818;29;20029;-86
2021/09/28 12:57:44;;;;;;;13.38;7.95;;;;;;;;;;4915793;29;20032;-86
2021/09/28 13:00:12;;;;;;;14.80;8.95;;;;;;;;;;4915741;29;20031;-85
2021/09/28 13:02:39;;;;;;;15.45;7.63;;;;;;;;;;4916330;29;20122;-87
2021/09/28 13:05:08;;;;;;;19.20;9.98;;;;;;;;;;4915922;29;20047;-87
2021/09/28 13:07:34;;;;;;;17.45;8.98;;;;;;;;;;4915912;29;20058;-88
2021/09/28 13:10:00;;;;;;;15.95;8.80;;;;;;;;;;4916197;29;20048;-89
2021/09/28 13:12:26;;;;;;;14.13;8.10;;;;;;;;;;4916684;29;20066;-88
2021/09/28 13:14:52;;;;;;;14.30;9.93;;;;;;;;;;4916259;29;20028;-86
2021/09/28 13:17:18;;;;;;;11.88;7.35;;;;;;;;;;4916236;29;20482;-86
2021/09/28 13:19:45;;;;;;;15.32;7.95;;;;;;;;;;4918693;29;20028;-88
2021/09/28 13:22:11;;;;;;;19.38;8.10;;;;;;;;;;4917019;29;20024;-86
2021/09/28 13:27:34;;;;;;;16.05;10.27;;;;;;;;;;4917487;29;20489;-91
2021/09/28 13:30:03;;;;;;;16.85;10.57;;;;;;;;;;4915721;29;20481;-87
2021/09/28 13:32:29;;;;;;;16.85;11.02;;;;;;;;;;4915436;29;20489;-86
2021/09/28 13:34:56;;;;;;;14.45;9.88;;;;;;;;;;4917222;29;20048;-87
2021/09/28 13:37:26;;;;;;;15.50;9.02;;;;;;;;;;4916307;29;20052;-86
2021/09/28 13:39:52;;;;;;;13.43;8.52;;;;;;;;;;4916797;29;20024;-87
2021/09/28 13:42:21;;;;;;;14.70;8.80;;;;;;;;;;4916988;29;20032;-89
2021/09/28 13:44:52;;;;;;;14.10;8.40;;;;;;;;;;4915825;29;20422;-90
2021/09/28 13:47:19;;;;;;;18.00;10.27;;;;;;;;;;4916053;29;20458;-87
2021/09/28 13:49:48;;;;;;;16.23;8.93;;;;;;;;;;4915431;29;20093;-87
2021/09/28 13:52:14;;;;;;;16.85;10.38;;;;;;;;;;4915087;29;20059;-87
2021/09/28 13:54:40;;;;;;;18.83;9.60;;;;;;;;;;4918721;29;20525;-87
2021/09/28 13:57:06;;;;;;;15.52;10.18;;;;;;;;;;4918730;29;20115;-81
2021/09/28 13:59:36;;;;;;;16.05;10.80;;;;;;;;;;4918896;29;20030;-89
2021/09/28 14:02:05;;;;;;;16.67;10.98;;;;;;;;;;4918673;29;20028;-87
2021/09/28 14:04:31;;;;;;;15.32;9.25;;;;;;;;;;4919242;29;20067;-89
2021/09/28 14:06:57;;;;;;;16.77;10.75;;;;;;;;;;4919006;29;20492;-87
2021/09/28 14:09:25;;;;;;;20.70;11.50;;;;;;;;;;4918629;29;20028;-87
2021/09/28 14:11:54;;;;;;;19.20;11.50;;;;;;;;;;4918708;29;20054;-87
2021/09/28 14:14:20;;;;;;;20.67;11.98;;;;;;;;;;4919120;29;20028;-90
2021/09/28 14:16:46;;;;;;;20.73;11.65;;;;;;;;;;4918912;29;20111;-89
2021/09/28 14:19:16;;;;;;;22.23;12.65;;;;;;;;;;4919056;29;20036;-86
2021/09/28 14:24:58;;;;;;;18.63;12.65;;;;;;;;;;4891011;29;20039;-89
2021/09/28 14:27:39;;;;;;;21.92;12.90;;;;;;;;;;4917044;29;20043;-90
2021/09/28 14:30:14;;;;;;;17.75;12.48;;;;;;;;;;4919277;29;20492;-87
2021/09/28 14:32:41;;;;;;;19.63;13.70;;;;;;;;;;4918419;29;20047;-88
2021/09/28 14:35:08;;;;;;;20.15;13.73;;;;;;;;;;4919321;29;20028;-88
2021/09/28 14:37:34;;;;;;;24.40;14.27;;;;;;;;;;4916846;29;20047;-88
2021/09/28 14:40:21;;;;;;;21.48;13.57;;;;;;;;;;4918137;29;20469;-92
2021/09/28 14:42:49;;;;;;;23.27;13.75;;;;;;;;;;4918351;29;20074;-88
2021/09/28 14:45:20;;;;;;;18.50;12.50;;;;;;;;;;4918405;29;20028;-89